Time;durP1;ratioP1;P1;durP2;ratioP2;P2;SDS_P1;SDS_P2;PMS_P1;PMS_P2;Temp;Humidity;BMP_temperature;BMP_pressure;BME280_temperature;BME280_humidity;BME280_pressure;Samples;Min_cycle;Max_cycle;Signal;HPM_P1;HPM_P2
2023/11/11 00:01:21;;;;;;;1.00;0.80;;;;;;;4.57;100.00;96786.91;6101318;19;20013;-74
2023/11/11 00:03:22;;;;;;;1.95;1.00;;;;;;;4.53;100.00;96777.88;6101193;19;20028;-75
2023/11/11 00:05:23;;;;;;;3.30;1.30;;;;;;;4.51;100.00;96780.22;6100927;19;20022;-75
2023/11/11 00:07:24;;;;;;;1.42;1.00;;;;;;;4.53;100.00;96777.88;6100998;19;20030;-75
2023/11/11 00:09:24;;;;;;;5.18;1.17;;;;;;;4.46;100.00;96770.38;6100933;19;20010;-75
2023/11/11 00:11:24;;;;;;;0.88;0.80;;;;;;;4.48;100.00;96773.56;6102000;19;20011;-74
2023/11/11 00:13:25;;;;;;;1.52;1.20;;;;;;;4.37;100.00;96764.44;6101254;19;20010;-75
2023/11/11 00:15:25;;;;;;;4.38;1.20;;;;;;;4.34;100.00;96757.00;6100287;19;20038;-75
2023/11/11 00:17:26;;;;;;;1.83;1.00;;;;;;;4.30;100.00;96758.13;6101230;19;20344;-75
2023/11/11 00:19:27;;;;;;;3.47;1.10;;;;;;;4.28;100.00;96754.97;6101787;19;20035;-74
2023/11/11 00:21:28;;;;;;;3.88;1.48;;;;;;;4.21;100.00;96764.69;6101385;19;20002;-76
2023/11/11 00:23:28;;;;;;;2.72;1.02;;;;;;;4.16;100.00;96759.59;6098015;19;20034;-75
2023/11/11 00:25:28;;;;;;;3.97;1.38;;;;;;;4.08;100.00;96757.16;6099618;19;20106;-75
2023/11/11 00:27:29;;;;;;;2.60;1.48;;;;;;;4.01;100.00;96757.88;6100473;19;20006;-75
2023/11/11 00:29:30;;;;;;;1.65;1.20;;;;;;;4.06;100.00;96762.25;6093929;19;20079;-75
2023/11/11 00:31:33;;;;;;;2.25;1.05;;;;;;;4.09;100.00;96767.72;6091836;19;20359;-75
2023/11/11 00:33:34;;;;;;;2.47;1.20;;;;;;;4.14;100.00;96769.34;6094184;19;20615;-74
2023/11/11 00:35:34;;;;;;;1.70;1.13;;;;;;;4.11;100.00;96761.88;6090275;19;20034;-74
2023/11/11 00:37:35;;;;;;;1.15;0.90;;;;;;;4.11;100.00;96762.66;6093941;19;20015;-75
2023/11/11 00:39:35;;;;;;;1.08;0.90;;;;;;;4.13;100.00;96754.84;6093103;19;20336;-75
2023/11/11 00:41:35;;;;;;;2.10;1.13;;;;;;;4.18;100.00;96764.69;6093501;19;20002;-74
2023/11/11 00:43:36;;;;;;;2.90;1.15;;;;;;;4.18;100.00;96761.94;6093364;19;20021;-75
2023/11/11 00:45:36;;;;;;;3.75;1.23;;;;;;;4.17;100.00;96752.94;6092839;19;20021;-74
2023/11/11 00:47:36;;;;;;;3.25;1.30;;;;;;;4.16;100.00;96750.59;6093304;19;20006;-75
2023/11/11 00:49:37;;;;;;;5.85;1.38;;;;;;;4.12;100.00;96745.06;6093144;19;20005;-75
2023/11/11 00:51:39;;;;;;;4.10;1.20;;;;;;;4.10;100.00;96752.09;6092774;19;20007;-75
2023/11/11 00:53:40;;;;;;;2.05;1.08;;;;;;;4.11;100.00;96746.22;6093198;19;20034;-75
2023/11/11 00:55:40;;;;;;;3.70;1.45;;;;;;;4.09;100.00;96748.56;6092242;19;20078;-75
2023/11/11 00:57:43;;;;;;;1.58;1.10;;;;;;;4.13;100.00;96745.84;6092970;19;20014;-74
2023/11/11 00:59:43;;;;;;;1.88;1.30;;;;;;;4.17;100.00;96746.69;6092952;19;20074;-74
2023/11/11 01:01:43;;;;;;;5.40;1.30;;;;;;;4.21;100.00;96745.53;6093013;19;20609;-74
2023/11/11 01:03:44;;;;;;;3.90;1.52;;;;;;;4.26;100.00;96749.88;6093158;19;20018;-75
2023/11/11 01:05:44;;;;;;;2.13;1.48;;;;;;;4.30;100.00;96747.94;6091558;19;20003;-75
2023/11/11 01:07:45;;;;;;;2.25;1.48;;;;;;;4.35;100.00;96744.88;6093601;19;20343;-75
2023/11/11 01:09:45;;;;;;;1.83;1.23;;;;;;;4.31;100.00;96744.06;6093205;19;20121;-74
2023/11/11 01:11:47;;;;;;;4.95;1.45;;;;;;;4.28;100.00;96744.81;6092680;19;20035;-74
2023/11/11 01:13:48;;;;;;;3.83;1.33;;;;;;;4.24;100.00;96735.81;6093068;19;20014;-74
2023/11/11 01:15:52;;;;;;;7.03;1.40;;;;;;;4.21;100.00;96733.81;6092434;19;20013;-75
2023/11/11 01:17:53;;;;;;;3.85;1.27;;;;;;;4.16;100.00;96725.97;6092906;19;20011;-74
2023/11/11 01:19:54;;;;;;;1.50;1.08;;;;;;;4.15;100.00;96732.59;6092838;19;20010;-74
2023/11/11 01:21:54;;;;;;;2.53;1.20;;;;;;;4.12;100.00;96727.88;6092051;19;20305;-75
2023/11/11 01:23:55;;;;;;;2.00;1.40;;;;;;;4.11;100.00;96729.81;6091261;19;20075;-74
2023/11/11 01:25:55;;;;;;;1.52;1.30;;;;;;;4.08;100.00;96718.84;6091635;19;20251;-74
2023/11/11 01:27:55;;;;;;;3.17;1.70;;;;;;;4.03;100.00;96721.91;6090631;19;20868;-74
2023/11/11 01:29:56;;;;;;;2.05;1.15;;;;;;;3.99;100.00;96712.91;6099285;19;20630;-74
2023/11/11 01:31:56;;;;;;;4.13;1.58;;;;;;;3.94;100.00;96709.34;6098333;19;20002;-74
2023/11/11 01:33:56;;;;;;;2.70;1.50;;;;;;;3.92;100.00;96706.19;6099115;19;20006;-74
2023/11/11 01:36:00;;;;;;;1.63;1.23;;;;;;;3.93;100.00;96701.50;6102181;19;20013;-75
2023/11/11 01:38:01;;;;;;;1.98;1.50;;;;;;;3.82;100.00;96695.94;6103354;19;20275;-74
2023/11/11 01:40:01;;;;;;;2.25;1.60;;;;;;;3.74;100.00;96702.53;6104089;19;20007;-74
2023/11/11 01:42:02;;;;;;;2.03;1.60;;;;;;;3.72;100.00;96702.09;6103809;19;19991;-75
2023/11/11 01:44:03;;;;;;;8.15;1.88;;;;;;;3.73;100.00;96703.69;6105662;19;20014;-75
2023/11/11 01:46:05;;;;;;;2.35;1.65;;;;;;;3.73;100.00;96698.22;6102706;19;20010;-74
2023/11/11 01:48:09;;;;;;;4.57;2.00;;;;;;;3.76;100.00;96694.72;6103907;19;20007;-74
2023/11/11 01:50:10;;;;;;;4.38;1.70;;;;;;;3.78;100.00;96695.13;6104027;19;20418;-75
2023/11/11 01:52:11;;;;;;;5.20;2.22;;;;;;;3.76;100.00;96700.19;6103766;19;20321;-74
2023/11/11 01:54:12;;;;;;;2.78;1.70;;;;;;;3.77;100.00;96698.25;6103592;19;20014;-74
2023/11/11 01:56:13;;;;;;;3.05;1.67;;;;;;;3.79;100.00;96693.16;6102400;19;20010;-74
2023/11/11 01:58:15;;;;;;;2.67;1.58;;;;;;;3.82;100.00;96692.44;6104057;19;20010;-74
2023/11/11 02:00:18;;;;;;;2.90;1.67;;;;;;;3.82;100.00;96690.47;6104299;19;20015;-74
2023/11/11 02:02:19;;;;;;;3.70;1.92;;;;;;;3.81;100.00;96688.91;6103857;19;20003;-75
2023/11/11 02:04:20;;;;;;;2.10;1.85;;;;;;;3.81;100.00;96680.72;6103511;19;20007;-75
2023/11/11 02:06:21;;;;;;;3.85;1.80;;;;;;;3.80;100.00;96684.59;6102306;19;20011;-75
2023/11/11 02:08:24;;;;;;;4.85;2.00;;;;;;;3.77;100.00;96679.09;6103669;19;20019;-75
2023/11/11 02:10:25;;;;;;;4.05;2.22;;;;;;;3.79;100.00;96682.22;6104843;19;20351;-75
2023/11/11 02:12:26;;;;;;;4.53;2.00;;;;;;;3.82;100.00;96676.03;6103444;19;20010;-74
2023/11/11 02:14:27;;;;;;;2.88;2.03;;;;;;;3.84;100.00;96671.72;6103347;19;20114;-74
2023/11/11 02:16:28;;;;;;;3.97;2.30;;;;;;;3.81;100.00;96674.44;6103626;19;20931;-75
2023/11/11 02:18:28;;;;;;;3.45;2.05;;;;;;;3.78;100.00;96677.91;6102721;19;20025;-75
2023/11/11 02:20:33;;;;;;;5.22;2.60;;;;;;;3.75;100.00;96668.53;6102344;19;20687;-75
2023/11/11 02:22:33;;;;;;;2.78;2.05;;;;;;;3.68;100.00;96663.00;6104586;19;20011;-74
2023/11/11 02:24:34;;;;;;;4.53;2.50;;;;;;;3.67;100.00;96666.91;6105145;19;20399;-74
2023/11/11 02:26:35;;;;;;;4.68;2.10;;;;;;;3.66;100.00;96666.09;6103259;19;20010;-74
2023/11/11 02:28:35;;;;;;;6.03;2.08;;;;;;;3.65;100.00;96661.81;6104515;19;20016;-75
2023/11/11 02:30:35;;;;;;;4.35;2.13;;;;;;;3.63;100.00;96655.91;6104547;19;20018;-74
2023/11/11 02:32:36;;;;;;;4.47;2.10;;;;;;;3.66;100.00;96657.13;6101867;19;20007;-75
2023/11/11 02:34:36;;;;;;;3.63;2.17;;;;;;;3.66;100.00;96657.13;6104322;19;20013;-75
2023/11/11 02:36:37;;;;;;;4.22;2.38;;;;;;;3.76;100.00;96661.91;6102061;19;20568;-74
2023/11/11 02:38:37;;;;;;;4.75;2.40;;;;;;;3.82;100.00;96665.06;6104816;19;20017;-74
2023/11/11 02:40:39;;;;;;;4.97;2.45;;;;;;;3.84;100.00;96671.72;6103256;19;20400;-74
2023/11/11 02:42:40;;;;;;;4.03;2.35;;;;;;;3.88;100.00;96658.06;6103834;19;20464;-75
2023/11/11 02:44:41;;;;;;;4.35;2.45;;;;;;;3.88;100.00;96655.34;6104621;19;20017;-74
2023/11/11 02:46:42;;;;;;;5.90;2.22;;;;;;;3.86;100.00;96663.94;6103223;19;20085;-74
2023/11/11 02:48:43;;;;;;;2.67;2.15;;;;;;;3.89;100.00;96657.72;6104095;19;20034;-74
2023/11/11 02:50:43;;;;;;;5.68;2.30;;;;;;;3.92;100.00;96665.16;6103627;19;20011;-75
2023/11/11 02:52:43;;;;;;;5.70;2.45;;;;;;;3.92;100.00;96664.38;6104434;19;20450;-75
2023/11/11 02:54:44;;;;;;;3.58;2.50;;;;;;;3.89;100.00;96659.66;6103849;19;20310;-74
2023/11/11 02:56:44;;;;;;;5.40;2.30;;;;;;;3.88;100.00;96664.31;6102403;19;20006;-74
2023/11/11 02:58:45;;;;;;;4.20;2.63;;;;;;;3.92;100.00;96667.91;6104463;19;20086;-74
2023/11/11 03:00:45;;;;;;;4.95;2.70;;;;;;;3.97;100.00;96661.28;6103707;19;20014;-74
2023/11/11 03:02:45;;;;;;;5.57;1.95;;;;;;;3.95;100.00;96667.13;6103185;19;20086;-74
2023/11/11 03:04:46;;;;;;;5.38;2.35;;;;;;;3.95;100.00;96677.28;6104057;19;20015;-74
2023/11/11 03:06:46;;;;;;;5.13;2.45;;;;;;;3.90;100.00;96670.22;6101724;19;20007;-74
2023/11/11 03:08:46;;;;;;;4.70;2.53;;;;;;;3.83;100.00;96666.66;6103062;19;20019;-74
2023/11/11 03:10:47;;;;;;;4.32;2.45;;;;;;;3.86;100.00;96669.41;6104327;19;20014;-74
2023/11/11 03:12:47;;;;;;;4.57;2.53;;;;;;;3.84;100.00;96677.22;6103613;19;20014;-74
2023/11/11 03:14:48;;;;;;;2.83;2.38;;;;;;;3.85;100.00;96672.50;6104048;19;20098;-74
2023/11/11 03:16:48;;;;;;;4.72;2.88;;;;;;;3.84;100.00;96679.94;6102333;19;20017;-74
2023/11/11 03:18:49;;;;;;;3.83;2.15;;;;;;;3.88;100.00;96677.22;6103719;19;20007;-75
2023/11/11 03:20:49;;;;;;;5.85;2.50;;;;;;;3.88;100.00;96669.81;6102635;19;20584;-74
2023/11/11 03:22:49;;;;;;;3.58;2.17;;;;;;;3.90;100.00;96680.38;6102556;19;20006;-74
2023/11/11 03:24:50;;;;;;;3.45;2.08;;;;;;;3.89;100.00;96665.94;6103203;19;20370;-74
2023/11/11 03:26:50;;;;;;;5.75;2.58;;;;;;;3.84;100.00;96674.47;6102159;19;20621;-75
2023/11/11 03:28:52;;;;;;;7.15;2.63;;;;;;;3.84;100.00;96663.53;6102829;19;20107;-74
2023/11/11 03:30:52;;;;;;;5.05;3.00;;;;;;;3.86;100.00;96658.44;6102925;19;20011;-75
2023/11/11 03:32:53;;;;;;;5.45;2.47;;;;;;;3.87;100.00;96654.56;6103073;19;20027;-74
2023/11/11 03:34:53;;;;;;;5.03;2.97;;;;;;;3.93;100.00;96663.22;6102178;19;20327;-74
2023/11/11 03:36:53;;;;;;;3.78;2.80;;;;;;;3.92;100.00;96661.63;6101551;19;20332;-74
2023/11/11 03:38:54;;;;;;;3.30;2.35;;;;;;;3.95;100.00;96663.59;6103323;19;20224;-74
2023/11/11 03:40:56;;;;;;;3.25;2.30;;;;;;;3.98;100.00;96670.28;6101867;19;20017;-74
2023/11/11 03:42:57;;;;;;;;;;;;;;;4.00;100.00;96659.75;6103337;19;20021;-74
2023/11/11 03:44:57;;;;;;;2.80;2.17;;;;;;;3.99;100.00;96655.44;6103619;19;19919;-74
2023/11/11 03:46:57;;;;;;;4.25;2.53;;;;;;;4.05;100.00;96653.91;6101802;19;20015;-74
2023/11/11 03:48:58;;;;;;;7.40;2.13;;;;;;;4.09;100.00;96649.25;6101844;19;20733;-75
2023/11/11 03:50:58;;;;;;;3.72;1.95;;;;;;;4.11;100.00;96655.91;6102721;19;20011;-74
2023/11/11 03:52:59;;;;;;;3.35;2.03;;;;;;;4.14;100.00;96646.19;6101774;19;20782;-74
2023/11/11 03:54:59;;;;;;;4.22;1.90;;;;;;;4.19;100.00;96643.06;6102619;19;20035;-74
2023/11/11 03:56:59;;;;;;;2.42;1.80;;;;;;;4.30;100.00;96651.34;6100967;19;20383;-75
2023/11/11 03:59:00;;;;;;;3.17;2.17;;;;;;;4.32;100.00;96660.00;6101529;19;20153;-74
2023/11/11 04:01:00;;;;;;;3.00;1.63;;;;;;;4.36;100.00;96658.81;6102434;19;20022;-74
2023/11/11 04:03:00;;;;;;;3.50;2.00;;;;;;;4.38;100.00;96648.28;6100336;19;20007;-74
2023/11/11 04:05:01;;;;;;;2.38;2.03;;;;;;;4.41;100.00;96650.25;6101878;19;20007;-75
2023/11/11 04:07:02;;;;;;;2.38;1.70;;;;;;;4.42;100.00;96651.84;6102080;19;20038;-74
2023/11/11 04:09:02;;;;;;;3.13;1.83;;;;;;;4.46;100.00;96649.09;6101772;19;20494;-75
2023/11/11 04:11:07;;;;;;;2.30;1.80;;;;;;;4.48;100.00;96655.00;6101601;19;20006;-74
2023/11/11 04:13:09;;;;;;;2.03;1.67;;;;;;;4.47;100.00;96658.91;6101882;19;20011;-74
2023/11/11 04:15:10;;;;;;;5.35;1.90;;;;;;;4.47;100.00;96661.66;6102402;19;20327;-74
2023/11/11 04:17:10;;;;;;;2.72;1.70;;;;;;;4.51;100.00;96663.22;6100301;19;20011;-74
2023/11/11 04:19:11;;;;;;;5.90;1.90;;;;;;;4.55;100.00;96662.47;6101350;19;20013;-74
2023/11/11 04:21:12;;;;;;;3.00;1.80;;;;;;;4.54;100.00;96661.66;6102048;19;20026;-75
2023/11/11 04:23:12;;;;;;;3.53;2.08;;;;;;;4.53;100.00;96665.59;6101380;19;20007;-74
2023/11/11 04:25:13;;;;;;;2.30;1.70;;;;;;;4.53;100.00;96653.84;6100966;19;20007;-74
2023/11/11 04:27:13;;;;;;;4.13;1.40;;;;;;;4.51;100.00;96654.22;6100768;19;20411;-75
2023/11/11 04:29:14;;;;;;;3.53;2.65;;;;;;;4.49;100.00;96665.56;6093867;19;20007;-74
2023/11/11 04:31:17;;;;;;;2.83;1.95;;;;;;;4.47;100.00;96667.91;6101016;19;20003;-74
2023/11/11 04:33:19;;;;;;;3.22;1.67;;;;;;;4.46;100.00;96666.31;6100689;19;20007;-74
2023/11/11 04:35:19;;;;;;;1.70;1.35;;;;;;;4.47;100.00;96670.66;6100140;19;20028;-74
2023/11/11 04:37:19;;;;;;;4.40;1.30;;;;;;;4.48;100.00;96669.47;6100193;19;20002;-74
2023/11/11 04:39:21;;;;;;;2.22;1.63;;;;;;;4.51;100.00;96667.94;6100411;19;20003;-74
2023/11/11 04:41:23;;;;;;;3.03;1.40;;;;;;;4.54;100.00;96675.38;6100649;19;20010;-74
2023/11/11 04:43:23;;;;;;;4.07;2.10;;;;;;;4.53;100.00;96679.28;6101294;19;20499;-75
2023/11/11 04:45:24;;;;;;;3.22;1.73;;;;;;;4.54;100.00;96674.59;6099063;19;20015;-74
2023/11/11 04:47:24;;;;;;;3.35;1.88;;;;;;;4.55;100.00;96690.66;6099893;19;20227;-74
2023/11/11 04:49:25;;;;;;;2.95;1.98;;;;;;;4.56;100.00;96677.75;6099880;19;20544;-74
2023/11/11 04:51:25;;;;;;;6.63;2.30;;;;;;;4.55;100.00;96687.09;6101193;19;20056;-74
2023/11/11 04:53:25;;;;;;;4.70;2.08;;;;;;;4.50;100.00;96686.31;6100425;19;20014;-75
2023/11/11 04:55:26;;;;;;;3.28;1.88;;;;;;;4.54;100.00;96685.53;6098891;19;20005;-74
2023/11/11 04:57:26;;;;;;;6.40;1.88;;;;;;;4.57;100.00;96695.75;6100506;19;20007;-74
2023/11/11 04:59:27;;;;;;;6.93;1.92;;;;;;;4.55;100.00;96693.41;6099717;19;20013;-75
2023/11/11 05:01:27;;;;;;;4.90;1.50;;;;;;;4.58;100.00;96691.84;6100283;19;20010;-74
2023/11/11 05:03:27;;;;;;;2.88;1.80;;;;;;;4.59;100.00;96685.97;6100580;19;20010;-74
2023/11/11 05:05:28;;;;;;;2.53;1.83;;;;;;;4.60;100.00;96695.75;6098826;19;20070;-75
2023/11/11 05:07:28;;;;;;;2.92;1.90;;;;;;;4.58;100.00;96697.31;6100773;19;20015;-74
2023/11/11 05:09:29;;;;;;;2.22;1.75;;;;;;;4.57;100.00;96696.53;6099483;19;20320;-74
2023/11/11 05:11:31;;;;;;;3.88;1.98;;;;;;;4.57;100.00;96696.53;6104797;19;20308;-74
2023/11/11 05:13:33;;;;;;;4.40;1.92;;;;;;;4.56;100.00;96703.19;6105353;19;20305;-75
2023/11/11 05:15:37;;;;;;;1.88;1.70;;;;;;;4.56;100.00;96703.19;6104086;19;20498;-74
2023/11/11 05:17:41;;;;;;;2.45;1.75;;;;;;;4.56;100.00;96702.41;6105681;19;20007;-75
2023/11/11 05:19:41;;;;;;;3.65;1.52;;;;;;;4.60;100.00;96700.44;6105451;19;20023;-74
2023/11/11 05:21:41;;;;;;;4.68;1.33;;;;;;;4.63;100.00;96705.16;6105468;19;20013;-75
2023/11/11 05:23:42;;;;;;;2.47;1.60;;;;;;;4.62;100.00;96709.06;6101112;19;19999;-74
2023/11/11 05:25:42;;;;;;;2.00;1.50;;;;;;;4.63;100.00;96710.63;6104455;19;20007;-75
2023/11/11 05:27:42;;;;;;;3.58;2.22;;;;;;;4.61;100.00;96721.19;6101822;19;20051;-74
2023/11/11 05:29:43;;;;;;;5.55;3.65;;;;;;;4.57;100.00;96723.91;6097112;19;20002;-74
2023/11/11 05:31:46;;;;;;;5.90;5.28;;;;;;;4.56;100.00;96729.78;6097749;19;20011;-75
2023/11/11 05:33:46;;;;;;;5.72;4.18;;;;;;;4.48;100.00;96729.72;6097838;19;20258;-75
2023/11/11 05:35:47;;;;;;;4.90;3.05;;;;;;;4.43;100.00;96740.25;6094945;19;20467;-74
2023/11/11 05:37:48;;;;;;;2.40;1.95;;;;;;;4.39;100.00;96755.88;6092728;19;20417;-75
2023/11/11 05:39:48;;;;;;;3.22;2.40;;;;;;;4.37;100.00;96753.50;6095467;19;20740;-75
2023/11/11 05:41:50;;;;;;;3.67;2.60;;;;;;;4.35;100.00;96755.03;6096034;19;20046;-74
2023/11/11 05:43:50;;;;;;;5.97;2.30;;;;;;;4.34;100.00;96758.94;6095954;19;20366;-75
2023/11/11 05:45:53;;;;;;;4.47;2.30;;;;;;;4.31;100.00;96756.97;6094869;19;20473;-75
2023/11/11 05:47:54;;;;;;;3.33;2.00;;;;;;;4.31;100.00;96752.28;6097439;19;20334;-74
2023/11/11 05:49:55;;;;;;;3.17;1.88;;;;;;;4.31;100.00;96757.75;6097478;19;20030;-75
2023/11/11 05:51:55;;;;;;;4.07;2.00;;;;;;;4.35;100.00;96764.03;6096356;19;20400;-75
2023/11/11 05:53:56;;;;;;;2.88;2.10;;;;;;;4.34;100.00;96759.72;6096277;19;20045;-75
2023/11/11 05:55:57;;;;;;;2.40;1.83;;;;;;;4.34;100.00;96756.22;6095341;19;20007;-75
2023/11/11 05:57:58;;;;;;;2.38;1.77;;;;;;;4.33;100.00;96760.13;6097113;19;20486;-75
2023/11/11 05:59:59;;;;;;;3.90;1.60;;;;;;;4.34;100.00;96767.94;6096751;19;20006;-75
2023/11/11 06:02:03;;;;;;;6.93;2.85;;;;;;;4.36;100.00;96778.53;6096465;19;20209;-75
2023/11/11 06:04:03;;;;;;;3.58;2.03;;;;;;;4.36;100.00;96784.78;6096493;19;20030;-75
2023/11/11 06:06:05;;;;;;;4.05;1.63;;;;;;;4.37;100.00;96783.59;6095297;19;20010;-75
2023/11/11 06:08:09;;;;;;;3.92;1.80;;;;;;;4.40;100.00;96799.31;6096046;19;20016;-75
2023/11/11 06:10:11;;;;;;;2.60;1.50;;;;;;;4.42;100.00;96809.88;6097099;19;20013;-74
2023/11/11 06:12:12;;;;;;;2.78;1.08;;;;;;;4.47;100.00;96807.59;6096044;19;20308;-75
2023/11/11 06:14:16;;;;;;;1.33;0.93;;;;;;;4.59;100.00;96824.88;6096602;19;20003;-74
2023/11/11 06:16:16;;;;;;;0.80;0.77;;;;;;;4.49;100.00;96838.09;6095586;19;19995;-75
2023/11/11 06:18:17;;;;;;;0.55;0.55;;;;;;;4.40;100.00;96829.44;6096116;19;20005;-74
2023/11/11 06:20:19;;;;;;;0.60;0.50;;;;;;;4.33;100.00;96834.03;6095882;19;20003;-74
2023/11/11 06:22:19;;;;;;;0.85;0.70;;;;;;;4.23;100.00;96833.56;6096208;19;19999;-75
2023/11/11 06:24:20;;;;;;;0.63;0.60;;;;;;;4.21;100.00;96833.13;6096341;19;19995;-75
2023/11/11 06:26:20;;;;;;;1.17;0.60;;;;;;;4.20;100.00;96833.50;6093229;19;20046;-75
2023/11/11 06:28:21;;;;;;;1.33;0.80;;;;;;;4.19;100.00;96843.69;6096070;19;20026;-75
2023/11/11 06:30:21;;;;;;;0.65;0.65;;;;;;;4.05;100.00;96840.78;6099648;19;20025;-75
2023/11/11 06:32:21;;;;;;;0.70;0.70;;;;;;;4.04;100.00;96844.69;6101812;19;20028;-75
2023/11/11 06:34:22;;;;;;;0.60;0.60;;;;;;;3.99;100.00;96850.53;6104850;19;20318;-74
2023/11/11 06:36:22;;;;;;;0.93;0.65;;;;;;;3.91;100.00;96857.84;6102042;19;20141;-75
2023/11/11 06:38:23;;;;;;;1.08;0.70;;;;;;;3.83;100.00;96848.00;6103674;19;20006;-75
2023/11/11 06:40:24;;;;;;;0.90;0.65;;;;;;;3.83;100.00;96863.63;6103552;19;20038;-76
2023/11/11 06:42:24;;;;;;;0.70;0.70;;;;;;;3.83;100.00;96866.34;6102892;19;20013;-74
2023/11/11 06:44:25;;;;;;;0.73;0.70;;;;;;;3.93;100.00;96871.94;6103023;19;20039;-75
2023/11/11 06:46:25;;;;;;;0.77;0.60;;;;;;;3.93;100.00;96882.88;6100894;19;20013;-74
2023/11/11 06:48:26;;;;;;;2.83;0.60;;;;;;;3.89;100.00;96882.06;6104106;19;20015;-75
2023/11/11 06:50:26;;;;;;;1.25;0.77;;;;;;;3.85;100.00;96891.38;6103365;19;20022;-75
2023/11/11 06:52:27;;;;;;;2.95;0.70;;;;;;;3.82;100.00;96890.19;6102130;19;20451;-75
2023/11/11 06:54:30;;;;;;;0.60;0.60;;;;;;;3.82;100.00;96892.94;6103511;19;20007;-75
2023/11/11 06:56:30;;;;;;;0.70;0.70;;;;;;;3.81;100.00;96898.78;6101923;19;20017;-75
2023/11/11 06:58:30;;;;;;;2.10;1.30;;;;;;;3.81;100.00;96907.78;6103438;19;20010;-74
2023/11/11 07:00:31;;;;;;;1.83;1.02;;;;;;;3.79;100.00;96912.03;6102363;19;20388;-75
2023/11/11 07:02:32;;;;;;;2.92;2.03;;;;;;;3.75;100.00;96913.94;6103017;19;20011;-74
2023/11/11 07:04:32;;;;;;;4.25;2.20;;;;;;;3.72;100.00;96920.91;6102752;19;20017;-75
2023/11/11 07:06:32;;;;;;;3.30;2.17;;;;;;;3.69;100.00;96927.13;6101782;19;20033;-75
2023/11/11 07:08:33;;;;;;;3.90;2.88;;;;;;;3.74;100.00;96928.78;6103796;19;20014;-74
2023/11/11 07:10:34;;;;;;;4.75;2.80;;;;;;;3.72;100.00;96940.06;6102780;19;20011;-74
2023/11/11 07:12:34;;;;;;;5.30;3.15;;;;;;;3.74;100.00;96929.56;6099176;19;20120;-75
2023/11/11 07:14:35;;;;;;;7.32;4.20;;;;;;;3.68;100.00;96939.25;6097324;19;20013;-75
2023/11/11 07:16:35;;;;;;;3.35;2.15;;;;;;;3.67;100.00;96949.38;6098652;19;20063;-74
2023/11/11 07:18:35;;;;;;;3.63;2.55;;;;;;;3.70;100.00;96949.81;6097274;19;20006;-75
2023/11/11 07:20:36;;;;;;;2.97;1.88;;;;;;;3.66;100.00;96958.75;6095075;19;20009;-75
2023/11/11 07:22:37;;;;;;;1.60;1.20;;;;;;;3.68;100.00;96963.84;6099377;19;20885;-75
2023/11/11 07:24:37;;;;;;;4.60;1.75;;;;;;;3.66;100.00;96957.97;6099024;19;20006;-75
2023/11/11 07:26:41;;;;;;;3.38;2.20;;;;;;;3.67;100.00;96973.22;6100222;19;20448;-75
2023/11/11 07:28:45;;;;;;;6.57;3.45;;;;;;;3.76;100.00;96964.75;6100026;19;20010;-75
2023/11/11 07:30:46;;;;;;;6.82;3.83;;;;;;;3.68;100.00;96961.13;6102282;19;20011;-75
2023/11/11 07:32:47;;;;;;;7.35;3.50;;;;;;;3.69;100.00;96970.13;6097680;19;20425;-75
2023/11/11 07:34:48;;;;;;;6.63;3.87;;;;;;;3.72;100.00;96972.88;6102249;19;20014;-75
2023/11/11 07:36:48;;;;;;;8.13;4.05;;;;;;;3.80;100.00;96980.03;6099839;19;20012;-74
2023/11/11 07:38:49;;;;;;;5.50;3.60;;;;;;;3.78;100.00;96978.84;6103250;19;20322;-74
2023/11/11 07:40:49;;;;;;;6.85;3.22;;;;;;;3.75;100.00;96979.59;6101817;19;20211;-75
2023/11/11 07:42:52;;;;;;;3.22;1.85;;;;;;;3.69;100.00;96976.38;6101726;19;20009;-75
2023/11/11 07:44:54;;;;;;;1.83;1.20;;;;;;;3.70;100.00;96988.88;6101977;19;20462;-74
2023/11/11 07:46:54;;;;;;;1.92;1.23;;;;;;;3.76;100.00;96983.91;6102206;19;20286;-75
2023/11/11 07:48:55;;;;;;;2.30;1.48;;;;;;;3.83;100.00;96994.94;6101495;19;20002;-75
2023/11/11 07:50:55;;;;;;;2.08;1.52;;;;;;;3.87;100.00;97006.72;6101185;19;20043;-75
2023/11/11 07:52:56;;;;;;;3.75;2.33;;;;;;;3.91;100.00;96997.41;6101394;19;20013;-74
2023/11/11 07:54:58;;;;;;;1.83;1.52;;;;;;;3.86;100.00;97005.91;6101021;19;20003;-75
2023/11/11 07:56:59;;;;;;;1.80;1.40;;;;;;;3.88;100.00;97003.59;6100485;19;20003;-75
2023/11/11 07:58:59;;;;;;;2.30;1.90;;;;;;;3.90;100.00;97006.78;6098857;19;20234;-75
2023/11/11 08:01:01;;;;;;;3.10;1.92;;;;;;;3.95;100.00;97006.44;6098105;19;20048;-75
2023/11/11 08:03:03;;;;;;;2.17;1.58;;;;;;;3.96;100.00;97007.22;6101576;19;20062;-74
2023/11/11 08:05:03;;;;;;;1.73;1.10;;;;;;;3.98;100.00;97010.41;6098803;19;20006;-74
2023/11/11 08:07:04;;;;;;;1.65;1.30;;;;;;;4.03;100.00;97014.75;6096039;19;20010;-74
2023/11/11 08:09:04;;;;;;;1.50;1.25;;;;;;;4.04;100.00;97022.59;6100426;19;20554;-74
2023/11/11 08:11:11;;;;;;;1.52;1.23;;;;;;;4.05;100.00;97021.41;6101622;19;20459;-74
2023/11/11 08:13:12;;;;;;;4.47;3.70;;;;;;;4.07;100.00;97013.66;6101413;19;20006;-74
2023/11/11 08:15:12;;;;;;;2.85;2.00;;;;;;;4.11;100.00;97021.91;6101656;19;20491;-74
2023/11/11 08:17:13;;;;;;;1.65;1.40;;;;;;;4.14;100.00;97019.22;6102349;19;20477;-74
2023/11/11 08:19:13;;;;;;;5.43;3.83;;;;;;;4.16;100.00;97024.31;6099656;19;20002;-74
2023/11/11 08:21:14;;;;;;;5.93;3.85;;;;;;;4.16;100.00;97029.78;6100353;19;20007;-74
2023/11/11 08:23:14;;;;;;;4.68;2.72;;;;;;;4.23;100.00;97038.09;6100000;19;20411;-74
2023/11/11 08:25:15;;;;;;;4.65;3.30;;;;;;;4.25;100.00;97033.03;6099972;19;20007;-74
2023/11/11 08:27:16;;;;;;;2.33;1.90;;;;;;;4.29;100.00;97036.59;6100359;19;20062;-74
2023/11/11 08:29:16;;;;;;;3.22;2.03;;;;;;;4.32;100.00;97044.09;6100281;19;20006;-74
2023/11/11 08:31:17;;;;;;;3.38;2.30;;;;;;;4.38;100.00;97037.09;6100691;19;20013;-74
2023/11/11 08:33:20;;;;;;;3.40;2.05;;;;;;;4.41;100.00;97044.59;6100211;19;20328;-74
2023/11/11 08:35:20;;;;;;;6.50;3.17;;;;;;;4.45;100.00;97039.16;6099663;19;20007;-74
2023/11/11 08:37:20;;;;;;;4.32;1.73;;;;;;;4.54;100.00;97045.13;6101530;19;20026;-74
2023/11/11 08:39:21;;;;;;;2.95;1.85;;;;;;;4.60;100.00;97045.59;6099364;19;20483;-74
2023/11/11 08:41:21;;;;;;;3.25;2.08;;;;;;;4.70;100.00;97045.72;6100603;19;20443;-74
2023/11/11 08:43:23;;;;;;;2.63;2.13;;;;;;;4.72;100.00;97046.16;6099889;19;20011;-74
2023/11/11 08:45:23;;;;;;;5.57;2.45;;;;;;;4.77;100.00;97058.72;6099767;19;20036;-74
2023/11/11 08:47:25;;;;;;;2.58;1.88;;;;;;;4.81;100.00;97056.81;6098940;19;20332;-74
2023/11/11 08:49:25;;;;;;;5.38;3.45;;;;;;;4.83;100.00;97062.69;6100098;19;20014;-74
2023/11/11 08:51:25;;;;;;;4.13;2.50;;;;;;;4.87;100.00;97065.47;6100370;19;20731;-74
2023/11/11 08:53:26;;;;;;;5.07;3.25;;;;;;;4.85;100.00;97068.59;6099366;19;20329;-75
2023/11/11 08:55:27;;;;;;;3.95;2.50;;;;;;;4.86;100.00;97072.91;6099097;19;20472;-74
2023/11/11 08:57:28;;;;;;;6.97;2.50;;;;;;;4.89;100.00;97063.16;6100436;19;20026;-74
2023/11/11 08:59:28;;;;;;;5.20;3.33;;;;;;;4.95;100.00;97067.13;6098993;19;19999;-74
2023/11/11 09:01:28;;;;;;;5.50;3.78;;;;;;;5.01;100.00;97071.91;6099766;19;20010;-75
2023/11/11 09:03:29;;;;;;;3.80;2.92;;;;;;;5.10;100.00;97070.81;6097733;19;20499;-75
2023/11/11 09:05:30;;;;;;;6.40;3.55;;;;;;;5.13;100.00;97067.31;6099131;19;20113;-74
2023/11/11 09:07:31;;;;;;;8.65;4.50;;;;;;;5.11;100.00;97067.69;6099228;19;20017;-74
2023/11/11 09:09:31;;;;;;;7.55;3.65;;;;;;;5.17;100.00;97070.88;6099798;19;20102;-74
2023/11/11 09:11:36;;;;;;;8.07;4.30;;;;;;;5.29;100.00;97081.56;6099704;19;20014;-74
2023/11/11 09:13:37;;;;;;;8.30;5.53;;;;;;;5.34;100.00;97079.28;6099733;19;20692;-74
2023/11/11 09:15:37;;;;;;;7.20;3.90;;;;;;;5.38;100.00;97076.59;6098618;19;20006;-75
2023/11/11 09:17:38;;;;;;;9.65;6.03;;;;;;;5.40;100.00;97084.44;6097658;19;21257;-74
2023/11/11 09:19:39;;;;;;;7.25;3.83;;;;;;;5.50;100.00;97079.03;6098747;19;20006;-74
2023/11/11 09:21:40;;;;;;;6.90;3.90;;;;;;;5.48;100.00;97078.63;6098518;19;20031;-74
2023/11/11 09:23:40;;;;;;;5.47;3.63;;;;;;;5.47;100.00;97082.53;6099445;19;20011;-74
2023/11/11 09:25:41;;;;;;;12.15;6.10;;;;;;;5.53;100.00;97080.22;6098241;19;20030;-74
2023/11/11 09:27:41;;;;;;;6.93;3.45;;;;;;;5.49;100.00;97082.94;6089469;19;20972;-74
2023/11/11 09:29:42;;;;;;;8.23;5.07;;;;;;;5.56;100.00;97088.50;6096170;19;20003;-74